Terminal Aerodrome Forecast
Issued by NWS Kansas City/Pleasant Hill, MO

Home | Current Version | Previous Version | Text Only | Print | Product List | Glossary On
Versions: 1 2 3 4 5 6 7 8 9 10 11 12 13 14
000
FTUS43 KEAX 222320
TAFMCI
TAF
KMCI 222320Z 2300/2324 18010KT P6SM BKN035
     FM230600 VRB05KT P6SM BKN090
     FM230800 35009KT 6SM -SHRA VCTS BKN040CB
     FM231100 01010KT P6SM BKN035
     FM231800 34013KT P6SM SCT200=

USA.gov is the U.S. government's official web portal to all federal, state and local government web resources and services.